createdAt,value
2024-01-14T00:00:49.485Z,1283
2024-01-14T00:02:02.475Z,1285
2024-01-14T00:03:16.206Z,1284
2024-01-14T00:04:19.101Z,1290
2024-01-14T00:05:32.672Z,1288
2024-01-14T00:06:45.297Z,1289
2024-01-14T00:07:48.668Z,1290
2024-01-14T00:09:01.311Z,1285
2024-01-14T00:10:14.680Z,1288
2024-01-14T00:11:17.317Z,1287
2024-01-14T00:12:31.250Z,1287
2024-01-14T00:13:44.216Z,1287
2024-01-14T00:14:47.885Z,1284
2024-01-14T00:16:00.782Z,1284
2024-01-14T00:17:19.221Z,1285
2024-01-14T00:18:22.225Z,1287
2024-01-14T00:19:35.773Z,1281
2024-01-14T00:20:38.803Z,1279
2024-01-14T00:21:52.195Z,1277
2024-01-14T00:23:05.118Z,1275
2024-01-14T00:24:08.724Z,1276
2024-01-14T00:25:21.692Z,1277
2024-01-14T00:26:35.206Z,1277
2024-01-14T00:27:38.087Z,1277
2024-01-14T00:28:51.693Z,1278
2024-01-14T00:30:04.640Z,1280
2024-01-14T00:31:18.246Z,1274
2024-01-14T00:32:21.156Z,1272
2024-01-14T00:33:34.790Z,1272
2024-01-14T00:34:47.966Z,1272
2024-01-14T00:35:51.707Z,1270
2024-01-14T00:37:04.652Z,1271
2024-01-14T00:38:18.233Z,1271
2024-01-14T00:39:21.094Z,1269
2024-01-14T00:40:34.687Z,1265
2024-01-14T00:41:47.513Z,1267
2024-01-14T00:42:51.169Z,1264
2024-01-14T00:44:03.987Z,1265
2024-01-14T00:45:17.703Z,1264
2024-01-14T00:46:20.572Z,1265
2024-01-14T00:47:34.229Z,1265
2024-01-14T00:48:47.255Z,1263
2024-01-14T00:49:51.274Z,1263
2024-01-14T00:51:04.261Z,1260
2024-01-14T00:52:18.659Z,1258
2024-01-14T00:53:21.490Z,1256
2024-01-14T00:54:35.199Z,1255
2024-01-14T00:55:48.045Z,1255
2024-01-14T00:56:51.684Z,1251
2024-01-14T00:58:04.318Z,1248
2024-01-14T00:59:18.218Z,1247
2024-01-14T01:00:21.062Z,1242
2024-01-14T01:01:34.695Z,1240
2024-01-14T01:02:47.612Z,1241
2024-01-14T01:03:51.249Z,1238
2024-01-14T01:05:04.245Z,1238
2024-01-14T01:06:17.705Z,1231
2024-01-14T01:07:20.654Z,1230
2024-01-14T01:08:34.199Z,1232
2024-01-14T01:09:47.026Z,1227
2024-01-14T01:11:00.678Z,1226
2024-01-14T01:12:03.506Z,1226
2024-01-14T01:13:17.165Z,1223
2024-01-14T01:14:30.000Z,1225
2024-01-14T01:15:33.751Z,1224
2024-01-14T01:16:46.714Z,1221
2024-01-14T01:18:00.329Z,1217
2024-01-14T01:19:04.918Z,1214
2024-01-14T01:20:18.715Z,1214
2024-01-14T01:21:21.804Z,1211
2024-01-14T01:22:35.708Z,1210
2024-01-14T01:23:48.664Z,1210
2024-01-14T01:24:52.693Z,1208
2024-01-14T01:26:05.498Z,1206
2024-01-14T01:27:19.234Z,1203
2024-01-14T01:28:22.126Z,1205
2024-01-14T01:29:35.699Z,1204
2024-01-14T01:30:48.613Z,1206
2024-01-14T01:32:07.808Z,1206
2024-01-14T01:33:12.085Z,1204
2024-01-14T01:34:16.463Z,1204
2024-01-14T01:35:29.439Z,1204
2024-01-14T01:36:43.285Z,1203
2024-01-14T01:37:46.172Z,1202
2024-01-14T01:38:59.730Z,1202
2024-01-14T01:40:02.699Z,1200
2024-01-14T01:41:16.202Z,1199
2024-01-14T01:42:29.095Z,1196
2024-01-14T01:43:42.685Z,1195
2024-01-14T01:44:45.576Z,1196
2024-01-14T01:45:59.242Z,1194
2024-01-14T01:47:12.125Z,1191
2024-01-14T01:48:17.910Z,1188
2024-01-14T01:49:32.847Z,1185
2024-01-14T01:50:37.718Z,1184
2024-01-14T01:51:50.631Z,1183
2024-01-14T01:52:54.236Z,1181
2024-01-14T01:54:07.111Z,1178
2024-01-14T01:55:20.793Z,1178
2024-01-14T01:56:23.912Z,1175
2024-01-14T01:57:37.732Z,1173
2024-01-14T01:58:50.512Z,1173
2024-01-14T02:00:03.738Z,1171
2024-01-14T02:01:06.696Z,1171
2024-01-14T02:02:20.706Z,1173
2024-01-14T02:03:33.582Z,1172
2024-01-14T02:04:37.243Z,1169
2024-01-14T02:05:50.309Z,1168
2024-01-14T02:07:04.759Z,1167
2024-01-14T02:08:07.643Z,1168
2024-01-14T02:09:21.304Z,1166
2024-01-14T02:10:34.181Z,1163
2024-01-14T02:11:37.747Z,1162
2024-01-14T02:12:50.565Z,1160
2024-01-14T02:14:04.216Z,1159
2024-01-14T02:15:07.110Z,1157
2024-01-14T02:16:22.471Z,1157
2024-01-14T02:17:25.737Z,1154
2024-01-14T02:18:39.857Z,1154
2024-01-14T02:19:52.968Z,1153
2024-01-14T02:20:56.738Z,1150
2024-01-14T02:22:09.573Z,1148
2024-01-14T02:23:23.240Z,1146
2024-01-14T02:24:26.220Z,1145
2024-01-14T02:25:40.229Z,1144
2024-01-14T02:26:53.089Z,1144
2024-01-14T02:27:56.682Z,1143
2024-01-14T02:29:09.505Z,1142
2024-01-14T02:30:23.288Z,1140
2024-01-14T02:31:26.334Z,1142
2024-01-14T02:32:40.229Z,1141
2024-01-14T02:33:53.171Z,1142
2024-01-14T02:35:07.258Z,1142
2024-01-14T02:36:10.240Z,1142
2024-01-14T02:37:23.692Z,1142
2024-01-14T02:38:36.528Z,1141
2024-01-14T02:39:40.220Z,1140
2024-01-14T02:40:53.073Z,1139
2024-01-14T02:42:06.722Z,1139
2024-01-14T02:43:09.655Z,1140
2024-01-14T02:44:23.226Z,1137
2024-01-14T02:45:36.094Z,1134
2024-01-14T02:46:39.722Z,1134
2024-01-14T02:47:52.617Z,1133
2024-01-14T02:49:06.587Z,1135
2024-01-14T02:50:09.615Z,1137
2024-01-14T02:51:23.924Z,1138
2024-01-14T02:52:36.982Z,1140
2024-01-14T02:53:40.693Z,1143
2024-01-14T02:54:53.626Z,1144
2024-01-14T02:56:07.191Z,1143
2024-01-14T02:57:10.245Z,1142
2024-01-14T02:58:24.215Z,1143
2024-01-14T02:59:37.057Z,1144
2024-01-14T03:00:40.798Z,1141
2024-01-14T03:01:53.821Z,1140
2024-01-14T03:03:07.794Z,1139
2024-01-14T03:04:10.776Z,1136
2024-01-14T03:05:24.758Z,1135
2024-01-14T03:06:37.733Z,1136
2024-01-14T03:07:41.219Z,1137
2024-01-14T03:08:54.070Z,1133
2024-01-14T03:10:07.710Z,1135
2024-01-14T03:11:10.662Z,1134
2024-01-14T03:12:24.267Z,1134
2024-01-14T03:13:37.134Z,1134
2024-01-14T03:14:50.780Z,1131
2024-01-14T03:15:53.767Z,1129
2024-01-14T03:17:07.233Z,1128
2024-01-14T03:18:20.253Z,1126
2024-01-14T03:19:24.407Z,1126
2024-01-14T03:20:37.319Z,1131
2024-01-14T03:21:50.756Z,1132
2024-01-14T03:22:53.626Z,1128
2024-01-14T03:24:07.243Z,1130
2024-01-14T03:25:20.141Z,1130
2024-01-14T03:26:23.726Z,1130
2024-01-14T03:27:36.561Z,1129
2024-01-14T03:28:50.229Z,1127
2024-01-14T03:29:53.157Z,1127
2024-01-14T03:31:06.818Z,1128
2024-01-14T03:32:19.761Z,1127
2024-01-14T03:33:33.340Z,1127
2024-01-14T03:34:36.301Z,1126
2024-01-14T03:35:49.754Z,1128
2024-01-14T03:38:20.237Z,1126
2024-01-14T03:39:23.193Z,1126
2024-01-14T03:40:26.827Z,1128
2024-01-14T03:41:39.668Z,1126
2024-01-14T03:42:53.361Z,1130
2024-01-14T03:43:56.364Z,1131
2024-01-14T03:45:09.897Z,1130
2024-01-14T03:46:22.813Z,1129
2024-01-14T03:47:26.355Z,1130
2024-01-14T03:48:39.238Z,1132
2024-01-14T03:49:52.847Z,1130
2024-01-14T03:50:55.842Z,1128
2024-01-14T03:52:09.325Z,1128
2024-01-14T03:53:22.221Z,1126
2024-01-14T03:54:25.837Z,1124
2024-01-14T03:55:38.755Z,1121
2024-01-14T03:56:52.335Z,1121
2024-01-14T03:57:55.325Z,1118
2024-01-14T03:59:08.782Z,1115
2024-01-14T04:00:21.705Z,1112
2024-01-14T04:01:35.361Z,1110
2024-01-14T04:02:38.351Z,1105
2024-01-14T04:03:51.874Z,1104
2024-01-14T04:05:04.826Z,1102
2024-01-14T04:06:08.814Z,1100
2024-01-14T04:07:21.734Z,1097
2024-01-14T04:08:35.290Z,1097
2024-01-14T04:09:38.220Z,1095
2024-01-14T04:10:51.797Z,1094
2024-01-14T04:12:04.663Z,1092
2024-01-14T04:13:08.298Z,1092
2024-01-14T04:14:21.141Z,1088
2024-01-14T04:15:34.928Z,1086
2024-01-14T04:16:37.933Z,1087
2024-01-14T04:17:51.915Z,1083
2024-01-14T04:19:04.878Z,1081
2024-01-14T04:20:18.804Z,1080
2024-01-14T04:21:21.769Z,1079
2024-01-14T04:22:35.799Z,1080
2024-01-14T04:23:48.661Z,1082
2024-01-14T04:24:52.285Z,1080
2024-01-14T04:26:05.125Z,1078
2024-01-14T04:27:18.848Z,1078
2024-01-14T04:28:21.852Z,1076
2024-01-14T04:29:35.280Z,1076
2024-01-14T04:30:48.183Z,1078
2024-01-14T04:31:51.842Z,1079
2024-01-14T04:33:04.962Z,1076
2024-01-14T04:34:19.340Z,1076
2024-01-14T04:35:22.416Z,1080
2024-01-14T04:36:36.352Z,1078
2024-01-14T04:37:49.242Z,1073
2024-01-14T04:38:52.863Z,1073
2024-01-14T04:40:05.834Z,1072
2024-01-14T04:41:19.771Z,1072
2024-01-14T04:42:22.672Z,1070
2024-01-14T04:45:03.836Z,1066
2024-01-14T04:45:56.867Z,1065
2024-01-14T04:47:10.801Z,1064
2024-01-14T04:48:13.880Z,1062
2024-01-14T04:49:28.018Z,1059
2024-01-14T04:50:41.322Z,1059
2024-01-14T04:51:45.338Z,1055
2024-01-14T04:52:58.269Z,1054
2024-01-14T04:54:11.846Z,1055
2024-01-14T04:55:14.848Z,1056
2024-01-14T04:56:28.807Z,1055
2024-01-14T04:57:41.757Z,1054
2024-01-14T04:58:45.321Z,1054
2024-01-14T04:59:58.211Z,1054
2024-01-14T05:01:12.316Z,1054
2024-01-14T05:02:15.148Z,1054
2024-01-14T05:03:28.992Z,1054
2024-01-14T05:04:41.907Z,1052
2024-01-14T05:05:45.840Z,1049
2024-01-14T05:06:58.756Z,1045
2024-01-14T05:08:12.284Z,1044
2024-01-14T05:09:15.193Z,1042
2024-01-14T05:10:28.810Z,1039
2024-01-14T05:11:41.689Z,1037
2024-01-14T05:12:55.316Z,1037
2024-01-14T05:13:58.172Z,1033
2024-01-14T05:15:12.343Z,1033
2024-01-14T05:16:25.219Z,1029
2024-01-14T05:17:28.998Z,1027
2024-01-14T05:18:42.002Z,1026
2024-01-14T05:19:55.905Z,1027
2024-01-14T05:20:58.912Z,1027
2024-01-14T05:22:12.803Z,1025
2024-01-14T05:23:25.652Z,1022
2024-01-14T05:24:29.424Z,1021
2024-01-14T05:25:42.340Z,1020
2024-01-14T05:26:55.878Z,1018
2024-01-14T05:27:58.873Z,1021
2024-01-14T05:29:12.295Z,1021
2024-01-14T05:30:25.221Z,1019
2024-01-14T05:31:28.853Z,1016
2024-01-14T05:32:41.979Z,1016
2024-01-14T05:33:56.015Z,1014
2024-01-14T05:34:58.966Z,1012
2024-01-14T05:36:12.956Z,1012
2024-01-14T05:37:25.941Z,1013
2024-01-14T05:38:39.338Z,1011
2024-01-14T05:39:42.233Z,1011
2024-01-14T05:40:55.859Z,1010
2024-01-14T05:42:08.787Z,1010
2024-01-14T05:43:12.367Z,1009
2024-01-14T05:44:25.233Z,1009
2024-01-14T05:45:38.880Z,1007
2024-01-14T05:46:41.870Z,1005
2024-01-14T05:47:55.492Z,1007
2024-01-14T05:49:08.628Z,1010
2024-01-14T05:50:12.430Z,1006
2024-01-14T05:51:25.449Z,1003
2024-01-14T05:52:39.313Z,1002
2024-01-14T05:53:42.897Z,1003
2024-01-14T05:54:56.874Z,1002
2024-01-14T05:56:09.931Z,999
2024-01-14T05:57:13.869Z,996
2024-01-14T05:58:26.769Z,996
2024-01-14T05:59:40.362Z,997
2024-01-14T06:00:43.392Z,996
2024-01-14T06:01:57.387Z,996
2024-01-14T06:03:10.357Z,997
2024-01-14T06:04:14.427Z,1002
2024-01-14T06:05:27.436Z,1009
2024-01-14T06:06:41.473Z,1026
2024-01-14T06:07:44.585Z,1075
2024-01-14T06:08:58.343Z,1111
2024-01-14T06:10:11.236Z,1123
2024-01-14T06:11:14.856Z,1131
2024-01-14T06:12:27.781Z,1132
2024-01-14T06:13:41.378Z,1142
2024-01-14T06:14:44.244Z,1149
2024-01-14T06:15:57.867Z,1153
2024-01-14T06:17:10.724Z,1160
2024-01-14T06:18:24.531Z,1165
2024-01-14T06:19:27.626Z,1169
2024-01-14T06:20:41.332Z,1174
2024-01-14T06:21:54.173Z,1178
2024-01-14T06:22:57.844Z,1183
2024-01-14T06:24:10.763Z,1189
2024-01-14T06:25:24.374Z,1196
2024-01-14T06:26:27.241Z,1206
2024-01-14T06:27:40.934Z,1210
2024-01-14T06:28:53.818Z,1212
2024-01-14T06:29:57.399Z,1216
2024-01-14T06:31:10.448Z,1222
2024-01-14T06:32:24.369Z,1225
2024-01-14T06:33:27.866Z,1228
2024-01-14T06:34:42.020Z,1229
2024-01-14T06:35:55.011Z,1231
2024-01-14T06:36:58.888Z,1232
2024-01-14T06:38:11.831Z,1235
2024-01-14T06:39:25.398Z,1236
2024-01-14T06:40:32.209Z,1241
2024-01-14T06:41:43.382Z,1243
2024-01-14T06:42:56.248Z,1242
2024-01-14T06:43:59.885Z,1243
2024-01-14T06:45:12.805Z,1243
2024-01-14T06:46:26.351Z,1249
2024-01-14T06:47:29.249Z,1255
2024-01-14T06:48:43.073Z,1257
2024-01-14T06:50:03.819Z,1256
2024-01-14T06:51:04.415Z,1260
2024-01-14T06:52:17.376Z,1260
2024-01-14T06:53:20.870Z,1257
2024-01-14T06:54:33.748Z,1256
2024-01-14T06:55:47.347Z,1260
2024-01-14T06:57:00.220Z,1264
2024-01-14T06:58:03.904Z,1268
2024-01-14T06:59:16.721Z,1271
2024-01-14T07:00:30.463Z,1275
2024-01-14T07:01:33.553Z,1278
2024-01-14T07:02:47.344Z,1282
2024-01-14T07:04:00.370Z,1285
2024-01-14T07:05:04.366Z,1291
2024-01-14T07:06:17.383Z,1297
2024-01-14T07:07:30.861Z,1306
2024-01-14T07:08:33.742Z,1313
2024-01-14T07:09:47.359Z,1318
2024-01-14T07:11:00.222Z,1323
2024-01-14T07:12:13.992Z,1327
2024-01-14T07:13:16.998Z,1329
2024-01-14T07:14:30.892Z,1337
2024-01-14T07:15:43.842Z,1342
2024-01-14T07:16:47.845Z,1344
2024-01-14T07:18:01.198Z,1347
2024-01-14T07:19:15.049Z,1352
2024-01-14T07:20:18.088Z,1353
2024-01-14T07:21:31.923Z,1356
2024-01-14T07:22:44.875Z,1360
2024-01-14T07:23:48.357Z,1363
2024-01-14T07:25:01.223Z,1362
2024-01-14T07:26:14.877Z,1365
2024-01-14T07:27:17.786Z,1367
2024-01-14T07:28:31.401Z,1366
2024-01-14T07:29:44.244Z,1371
2024-01-14T07:30:47.997Z,1373
2024-01-14T07:32:04.318Z,1376
2024-01-14T07:33:09.957Z,1380
2024-01-14T07:34:22.980Z,1381
2024-01-14T07:35:36.910Z,1388
2024-01-14T07:36:39.816Z,1391
2024-01-14T07:37:53.859Z,1393
2024-01-14T07:39:06.763Z,1394
2024-01-14T07:40:10.391Z,1404
2024-01-14T07:41:23.229Z,1406
2024-01-14T07:42:36.858Z,1409
2024-01-14T07:43:39.718Z,1413
2024-01-14T07:44:53.425Z,1416
2024-01-14T07:46:06.323Z,1415
2024-01-14T07:47:19.862Z,1417
2024-01-14T07:48:22.809Z,1418
2024-01-14T07:49:37.476Z,1415
2024-01-14T07:50:40.433Z,1417
2024-01-14T07:51:54.375Z,1419
2024-01-14T07:53:07.210Z,1423
2024-01-14T07:54:20.897Z,1423
2024-01-14T07:55:23.847Z,1421
2024-01-14T07:56:37.901Z,1423
2024-01-14T07:57:40.713Z,1422
2024-01-14T07:58:54.398Z,1421
2024-01-14T08:00:07.121Z,1419
2024-01-14T08:01:20.427Z,1423
2024-01-14T08:02:23.626Z,1423
2024-01-14T08:03:37.546Z,1423
2024-01-14T08:04:50.549Z,1426
2024-01-14T08:05:54.448Z,1426
2024-01-14T08:07:07.380Z,1427
2024-01-14T08:08:20.885Z,1428
2024-01-14T08:09:23.788Z,1429
2024-01-14T08:10:37.390Z,1429
2024-01-14T08:11:50.238Z,1431
2024-01-14T08:12:53.934Z,1433
2024-01-14T08:14:06.930Z,1438
2024-01-14T08:15:21.426Z,1439
2024-01-14T08:16:24.476Z,1441
2024-01-14T08:17:38.397Z,1443
2024-01-14T08:18:51.441Z,1450
2024-01-14T08:19:55.463Z,1452
2024-01-14T08:21:08.444Z,1452
2024-01-14T08:22:22.401Z,1451
2024-01-14T08:23:25.320Z,1438
2024-01-14T08:24:38.995Z,1404
2024-01-14T08:25:52.004Z,1276
2024-01-14T08:27:05.903Z,981
2024-01-14T08:28:08.977Z,727
2024-01-14T08:29:25.623Z,660
2024-01-14T08:30:29.423Z,642
2024-01-14T08:31:43.459Z,599
2024-01-14T08:32:56.628Z,573
2024-01-14T08:34:00.558Z,551
2024-01-14T08:35:13.638Z,546
2024-01-14T08:36:27.928Z,528
2024-01-14T08:37:30.941Z,514
2024-01-14T08:38:44.906Z,507
2024-01-14T08:39:57.926Z,497
2024-01-14T08:41:01.907Z,491
2024-01-14T08:42:14.945Z,486
2024-01-14T08:43:28.925Z,484
2024-01-14T08:44:31.895Z,484
2024-01-14T08:45:45.461Z,487
2024-01-14T08:46:58.601Z,490
2024-01-14T08:48:12.666Z,488
2024-01-14T08:49:15.830Z,489
2024-01-14T08:50:29.397Z,490
2024-01-14T08:51:42.290Z,489
2024-01-14T08:52:45.934Z,490
2024-01-14T08:53:58.769Z,489
2024-01-14T08:55:12.392Z,490
2024-01-14T08:56:15.650Z,493
2024-01-14T08:57:29.413Z,493
2024-01-14T08:58:42.232Z,493
2024-01-14T08:59:45.938Z,494
2024-01-14T09:00:58.829Z,496
2024-01-14T09:02:12.433Z,499
2024-01-14T09:03:15.380Z,501
2024-01-14T09:04:29.000Z,503
2024-01-14T09:05:41.857Z,505
2024-01-14T09:06:55.504Z,507
2024-01-14T09:07:58.374Z,505
2024-01-14T09:09:11.912Z,506
2024-01-14T09:10:24.590Z,505
2024-01-14T09:11:27.917Z,510
2024-01-14T09:12:40.622Z,512
2024-01-14T09:13:54.424Z,511
2024-01-14T09:14:57.087Z,511
2024-01-14T09:16:10.391Z,510
2024-01-14T09:17:22.988Z,511
2024-01-14T09:18:36.986Z,511
2024-01-14T09:19:39.893Z,511
2024-01-14T09:20:53.422Z,514
2024-01-14T09:22:06.155Z,518
2024-01-14T09:23:09.421Z,520
2024-01-14T09:24:21.991Z,523
2024-01-14T09:25:35.393Z,522
2024-01-14T09:26:38.009Z,521
2024-01-14T09:27:51.413Z,520
2024-01-14T09:29:22.487Z,523
2024-01-14T09:30:28.234Z,526
2024-01-14T09:31:23.029Z,528
2024-01-14T09:32:36.461Z,532
2024-01-14T09:33:39.303Z,533
2024-01-14T09:34:52.942Z,534
2024-01-14T09:36:05.553Z,534
2024-01-14T09:37:08.936Z,536
2024-01-14T09:38:21.468Z,536
2024-01-14T09:39:35.220Z,539
2024-01-14T09:40:37.954Z,540
2024-01-14T09:41:51.463Z,539
2024-01-14T09:43:04.008Z,540
2024-01-14T09:44:17.436Z,543
2024-01-14T09:45:25.302Z,544
2024-01-14T09:46:31.391Z,544
2024-01-14T09:47:43.874Z,546
2024-01-14T09:48:57.570Z,545
2024-01-14T09:50:00.549Z,546
2024-01-14T09:51:13.932Z,548
2024-01-14T09:52:26.433Z,550
2024-01-14T09:53:29.910Z,553
2024-01-14T09:54:42.471Z,555
2024-01-14T09:55:55.947Z,557
2024-01-14T09:57:08.432Z,561
2024-01-14T09:58:11.930Z,562
2024-01-14T09:59:24.430Z,562
2024-01-14T10:00:38.476Z,564
2024-01-14T10:01:41.391Z,565
2024-01-14T10:02:54.486Z,567
2024-01-14T10:04:07.090Z,566
2024-01-14T10:05:10.432Z,568
2024-01-14T10:06:23.065Z,571
2024-01-14T10:07:36.532Z,574
2024-01-14T10:08:49.189Z,578
2024-01-14T10:09:52.410Z,580
2024-01-14T10:11:04.897Z,580
2024-01-14T10:12:18.451Z,583
2024-01-14T10:13:21.049Z,585
2024-01-14T10:14:34.467Z,583
2024-01-14T10:15:51.880Z,587
2024-01-14T10:16:59.047Z,592
2024-01-14T10:18:01.821Z,596
2024-01-14T10:19:15.506Z,599
2024-01-14T10:20:28.073Z,605
2024-01-14T10:21:31.546Z,613
2024-01-14T10:22:44.156Z,630
2024-01-14T10:23:57.465Z,670
2024-01-14T10:25:10.037Z,679
2024-01-14T10:26:13.421Z,699
2024-01-14T10:27:35.020Z,708
2024-01-14T10:28:41.432Z,715
2024-01-14T10:29:43.980Z,718
2024-01-14T10:30:58.553Z,721
2024-01-14T10:32:01.238Z,721
2024-01-14T10:33:21.992Z,723
2024-01-14T10:34:28.841Z,726
2024-01-14T10:35:33.908Z,727
2024-01-14T10:36:46.912Z,728
2024-01-14T10:38:00.494Z,726
2024-01-14T10:39:03.385Z,723
2024-01-14T10:40:16.930Z,723
2024-01-14T10:41:29.389Z,720
2024-01-14T10:42:33.018Z,717
2024-01-14T10:43:45.534Z,715
2024-01-14T10:44:59.018Z,709
2024-01-14T10:46:11.607Z,706
2024-01-14T10:47:14.927Z,705
2024-01-14T10:48:27.503Z,704
2024-01-14T10:49:40.978Z,700
2024-01-14T10:50:48.015Z,698
2024-01-14T10:52:02.438Z,697
2024-01-14T10:53:05.025Z,696
2024-01-14T10:54:18.499Z,694
2024-01-14T10:55:31.058Z,693
2024-01-14T10:56:34.432Z,695
2024-01-14T10:57:46.868Z,694
2024-01-14T10:58:59.935Z,691
2024-01-14T11:00:12.487Z,690
2024-01-14T11:01:15.957Z,691
2024-01-14T11:02:28.443Z,690
2024-01-14T11:03:43.030Z,688
2024-01-14T11:04:46.939Z,688
2024-01-14T11:06:00.548Z,687
2024-01-14T11:07:03.218Z,690
2024-01-14T11:08:16.437Z,689
2024-01-14T11:09:28.985Z,687
2024-01-14T11:10:42.546Z,686
2024-01-14T11:11:45.240Z,687
2024-01-14T11:12:58.501Z,685
2024-01-14T11:14:11.132Z,682
2024-01-14T11:15:14.458Z,682
2024-01-14T11:16:27.029Z,684
2024-01-14T11:17:40.578Z,683
2024-01-14T11:18:53.448Z,684
2024-01-14T11:19:57.018Z,683
2024-01-14T11:21:20.993Z,687
2024-01-14T11:22:28.119Z,688
2024-01-14T11:23:26.540Z,690
2024-01-14T11:24:39.999Z,690
2024-01-14T11:25:52.579Z,691
2024-01-14T11:26:56.345Z,688
2024-01-14T11:28:11.759Z,691
2024-01-14T11:29:16.435Z,692
2024-01-14T11:30:28.979Z,691
2024-01-14T11:31:51.946Z,693
2024-01-14T11:32:54.685Z,696
2024-01-14T11:33:58.110Z,699
2024-01-14T11:35:10.991Z,703
2024-01-14T11:36:24.523Z,706
2024-01-14T11:37:27.165Z,710
2024-01-14T11:38:40.485Z,712
2024-01-14T11:39:54.479Z,718
2024-01-14T11:40:57.974Z,721
2024-01-14T11:42:10.518Z,724
2024-01-14T11:43:23.982Z,728
2024-01-14T11:44:26.552Z,733
2024-01-14T11:45:40.344Z,734
2024-01-14T11:46:54.396Z,736
2024-01-14T11:47:58.248Z,738
2024-01-14T11:49:17.195Z,743
2024-01-14T11:50:18.082Z,746
2024-01-14T11:51:30.732Z,748
2024-01-14T11:52:43.955Z,753
2024-01-14T11:53:46.521Z,758
2024-01-14T11:54:59.965Z,761
2024-01-14T11:56:12.466Z,762
2024-01-14T11:57:26.011Z,764
2024-01-14T11:58:28.764Z,766
2024-01-14T11:59:42.853Z,770
2024-01-14T12:00:55.781Z,771
2024-01-14T12:01:59.529Z,774
2024-01-14T12:03:12.143Z,775
2024-01-14T12:04:25.541Z,776
2024-01-14T12:05:28.280Z,781
2024-01-14T12:06:41.517Z,782
2024-01-14T12:07:54.097Z,783
2024-01-14T12:09:07.525Z,785
2024-01-14T12:10:10.224Z,785
2024-01-14T12:11:23.479Z,787
2024-01-14T12:12:35.995Z,789
2024-01-14T12:13:39.452Z,790
2024-01-14T12:14:51.939Z,788
2024-01-14T12:16:05.039Z,789
2024-01-14T12:17:07.791Z,789
2024-01-14T12:18:21.159Z,792
2024-01-14T12:19:33.959Z,794
2024-01-14T12:20:47.494Z,793
2024-01-14T12:21:50.078Z,797
2024-01-14T12:23:03.563Z,800
2024-01-14T12:24:16.215Z,805
2024-01-14T12:25:23.309Z,806
2024-01-14T12:26:28.242Z,809
2024-01-14T12:27:41.467Z,811
2024-01-14T12:28:54.025Z,811
2024-01-14T12:30:07.669Z,811
2024-01-14T12:31:10.388Z,810
2024-01-14T12:32:24.104Z,810
2024-01-14T12:33:36.777Z,814
2024-01-14T12:34:40.697Z,819
2024-01-14T12:35:53.441Z,817
2024-01-14T12:37:09.983Z,822
2024-01-14T12:38:14.550Z,821
2024-01-14T12:39:28.609Z,826
2024-01-14T12:40:41.056Z,828
2024-01-14T12:41:53.049Z,830
2024-01-14T12:42:47.977Z,833
2024-01-14T12:44:01.516Z,835
2024-01-14T12:45:14.070Z,834
2024-01-14T12:46:33.267Z,838
2024-01-14T12:47:32.832Z,840
2024-01-14T12:48:46.038Z,840
2024-01-14T12:49:48.943Z,842
2024-01-14T12:51:02.504Z,845
2024-01-14T12:52:15.199Z,846
2024-01-14T12:53:20.450Z,847
2024-01-14T12:54:34.122Z,849
2024-01-14T12:55:47.510Z,848
2024-01-14T12:56:50.062Z,851
2024-01-14T12:58:03.524Z,852
2024-01-14T12:59:16.180Z,852
2024-01-14T13:00:19.573Z,850
2024-01-14T13:01:32.195Z,848
2024-01-14T13:02:45.562Z,850
2024-01-14T13:03:48.336Z,851
2024-01-14T13:05:02.068Z,848
2024-01-14T13:06:14.852Z,847
2024-01-14T13:07:30.424Z,847
2024-01-14T13:08:33.267Z,845
2024-01-14T13:09:47.060Z,847
2024-01-14T13:10:59.475Z,848
2024-01-14T13:12:03.076Z,850
2024-01-14T13:13:16.179Z,851
2024-01-14T13:14:19.522Z,853
2024-01-14T13:15:32.065Z,855
2024-01-14T13:16:53.285Z,858
2024-01-14T13:17:57.346Z,858
2024-01-14T13:19:01.085Z,860
2024-01-14T13:20:13.885Z,856
2024-01-14T13:21:27.497Z,856
2024-01-14T13:22:30.287Z,857
2024-01-14T13:23:44.719Z,859
2024-01-14T13:24:57.781Z,859
2024-01-14T13:26:01.014Z,860
2024-01-14T13:27:13.577Z,862
2024-01-14T13:28:27.016Z,864
2024-01-14T13:29:29.622Z,867
2024-01-14T13:30:43.171Z,868
2024-01-14T13:31:55.912Z,870
2024-01-14T13:33:09.587Z,872
2024-01-14T13:34:12.640Z,874
2024-01-14T13:35:26.249Z,880
2024-01-14T13:36:39.055Z,883
2024-01-14T13:37:42.526Z,884
2024-01-14T13:38:55.288Z,884
2024-01-14T13:40:08.502Z,887
2024-01-14T13:41:11.164Z,887
2024-01-14T13:42:24.544Z,888
2024-01-14T13:43:37.213Z,889
2024-01-14T13:44:50.538Z,893
2024-01-14T13:45:53.350Z,895
2024-01-14T13:47:07.000Z,896
2024-01-14T13:48:19.739Z,899
2024-01-14T13:49:23.596Z,907
2024-01-14T13:50:36.403Z,913
2024-01-14T13:51:50.234Z,932
2024-01-14T13:52:52.900Z,962
2024-01-14T13:54:20.206Z,982
2024-01-14T13:55:13.143Z,990
2024-01-14T13:56:27.483Z,989
2024-01-14T13:57:40.272Z,984
2024-01-14T13:58:43.574Z,984
2024-01-14T13:59:56.130Z,985
2024-01-14T14:01:09.692Z,985
2024-01-14T14:02:12.449Z,979
2024-01-14T14:03:25.672Z,976
2024-01-14T14:04:38.420Z,979
2024-01-14T14:06:54.324Z,985
2024-01-14T14:08:07.605Z,985
2024-01-14T14:09:20.183Z,983
2024-01-14T14:10:23.616Z,980
2024-01-14T14:13:03.613Z,978
2024-01-14T14:13:56.320Z,976
2024-01-14T14:15:09.600Z,973
2024-01-14T14:16:31.833Z,974
2024-01-14T14:17:32.669Z,973
2024-01-14T14:18:35.487Z,971
2024-01-14T14:19:49.445Z,972
2024-01-14T14:21:02.313Z,968
2024-01-14T14:22:06.087Z,967
2024-01-14T14:23:18.792Z,967
2024-01-14T14:24:33.037Z,970
2024-01-14T14:25:36.263Z,973
2024-01-14T14:26:49.665Z,974
2024-01-14T14:28:02.252Z,976
2024-01-14T14:29:05.553Z,978
2024-01-14T14:30:18.431Z,981
2024-01-14T14:31:43.471Z,981
2024-01-14T14:32:41.601Z,986
2024-01-14T14:33:55.168Z,992
2024-01-14T14:34:58.416Z,995
2024-01-14T14:36:12.106Z,997
2024-01-14T14:37:24.953Z,1002
2024-01-14T14:38:28.562Z,1003
2024-01-14T14:39:41.267Z,1004
2024-01-14T14:40:54.717Z,1004
2024-01-14T14:41:57.645Z,1006
2024-01-14T14:43:11.055Z,1010
2024-01-14T14:44:23.610Z,1014
2024-01-14T14:45:27.134Z,1014
2024-01-14T14:46:39.964Z,1016
2024-01-14T14:47:53.676Z,1018
2024-01-14T14:48:56.534Z,1019
2024-01-14T14:50:10.180Z,1020
2024-01-14T14:51:32.736Z,1021
2024-01-14T14:52:31.599Z,1020
2024-01-14T14:53:44.187Z,1016
2024-01-14T14:54:57.595Z,1017
2024-01-14T14:56:00.199Z,1015
2024-01-14T14:57:13.610Z,1013
2024-01-14T14:58:26.303Z,1010
2024-01-14T14:59:29.559Z,1006
2024-01-14T15:00:42.278Z,1006
2024-01-14T15:01:55.599Z,1004
2024-01-14T15:02:58.359Z,1002
2024-01-14T15:04:13.907Z,1001
2024-01-14T15:05:18.626Z,999
2024-01-14T15:06:32.157Z,998
2024-01-14T15:07:44.807Z,997
2024-01-14T15:08:58.610Z,996
2024-01-14T15:10:01.612Z,996
2024-01-14T15:11:23.830Z,995
2024-01-14T15:12:23.570Z,992
2024-01-14T15:13:37.115Z,989
2024-01-14T15:14:39.980Z,988
2024-01-14T15:15:53.647Z,985
2024-01-14T15:17:06.332Z,983
2024-01-14T15:18:09.714Z,982
2024-01-14T15:19:22.476Z,982
2024-01-14T15:20:36.081Z,979
2024-01-14T15:21:48.652Z,974
2024-01-14T15:22:52.105Z,973
2024-01-14T15:24:06.010Z,967
2024-01-14T15:25:19.612Z,962
2024-01-14T15:26:22.208Z,961
2024-01-14T15:27:35.629Z,958
2024-01-14T15:28:48.206Z,956
2024-01-14T15:29:51.596Z,955
2024-01-14T15:31:07.994Z,954
2024-01-14T15:32:12.791Z,957
2024-01-14T15:33:26.042Z,954
2024-01-14T15:34:39.767Z,953
2024-01-14T15:35:42.670Z,951
2024-01-14T15:36:56.183Z,947
2024-01-14T15:38:08.878Z,945
2024-01-14T15:39:12.295Z,942
2024-01-14T15:40:24.943Z,940
2024-01-14T15:41:38.715Z,941
2024-01-14T15:42:41.551Z,939
2024-01-14T15:43:55.123Z,937
2024-01-14T15:45:07.738Z,935
2024-01-14T15:46:21.176Z,935
2024-01-14T15:47:23.942Z,932
2024-01-14T15:48:37.705Z,931
2024-01-14T15:49:50.442Z,930
2024-01-14T15:51:00.406Z,930
2024-01-14T15:52:07.274Z,930